createdAt,value
2023-05-15T00:00:58.491Z,58.07
2023-05-15T00:03:26.257Z,57.89
2023-05-15T00:05:53.175Z,58.06
2023-05-15T00:08:20.103Z,58.02
2023-05-15T00:10:57.433Z,58.17
2023-05-15T00:13:28.190Z,58.30
2023-05-15T00:15:55.369Z,58.44
2023-05-15T00:18:22.421Z,58.52
2023-05-15T00:20:49.565Z,58.52
2023-05-15T00:23:16.375Z,58.81
2023-05-15T00:25:43.357Z,59.07
2023-05-15T00:28:10.301Z,59.17
2023-05-15T00:30:37.352Z,59.51
2023-05-15T00:33:04.352Z,59.39
2023-05-15T00:35:32.382Z,59.27
2023-05-15T00:37:59.320Z,59.37
2023-05-15T00:40:26.264Z,59.24
2023-05-15T00:42:53.327Z,59.18
2023-05-15T00:45:20.394Z,59.12
2023-05-15T00:47:47.466Z,59.13
2023-05-15T00:50:14.458Z,59.24
2023-05-15T00:52:41.378Z,59.27
2023-05-15T00:55:09.086Z,59.39
2023-05-15T00:57:35.976Z,59.42
2023-05-15T01:00:10.507Z,59.56
2023-05-15T01:02:38.107Z,59.75
2023-05-15T01:05:07.700Z,59.90
2023-05-15T01:07:36.114Z,60.11
2023-05-15T01:10:04.440Z,60.16
2023-05-15T01:12:32.226Z,60.26
2023-05-15T01:14:59.044Z,60.29
2023-05-15T01:17:26.178Z,60.28
2023-05-15T01:19:54.221Z,60.00
2023-05-15T01:22:30.820Z,59.96
2023-05-15T01:25:16.357Z,60.02
2023-05-15T01:28:33.681Z,60.09
2023-05-15T01:31:14.442Z,60.41
2023-05-15T01:33:43.199Z,60.43
2023-05-15T01:36:31.582Z,60.51
2023-05-15T01:38:59.905Z,60.67
2023-05-15T01:41:31.735Z,60.89
2023-05-15T01:44:20.384Z,61.21
2023-05-15T01:46:50.539Z,61.50
2023-05-15T01:49:18.989Z,61.53
2023-05-15T01:51:47.392Z,61.41
2023-05-15T01:54:14.767Z,61.21
2023-05-15T01:56:42.117Z,61.08
2023-05-15T01:59:09.021Z,61.04
2023-05-15T02:01:35.913Z,61.00
2023-05-15T02:04:02.823Z,60.99
2023-05-15T02:06:31.312Z,60.94
2023-05-15T02:08:58.117Z,60.90
2023-05-15T02:11:25.059Z,60.92
2023-05-15T02:13:52.409Z,60.82
2023-05-15T02:16:19.645Z,60.97
2023-05-15T02:18:46.898Z,61.15
2023-05-15T02:21:14.363Z,61.40
2023-05-15T02:23:42.462Z,61.58
2023-05-15T02:26:21.666Z,61.82
2023-05-15T02:29:00.902Z,62.03
2023-05-15T02:32:06.114Z,62.16
2023-05-15T02:34:52.678Z,62.10
2023-05-15T02:37:24.948Z,61.97
2023-05-15T02:39:54.572Z,62.01
2023-05-15T02:42:21.526Z,61.99
2023-05-15T02:44:48.871Z,61.99
2023-05-15T02:47:15.927Z,62.00
2023-05-15T02:49:42.945Z,61.90
2023-05-15T02:52:10.198Z,61.75
2023-05-15T02:54:37.042Z,61.70
2023-05-15T02:57:04.945Z,61.65
2023-05-15T02:59:32.263Z,61.54
2023-05-15T03:01:59.212Z,61.54
2023-05-15T03:04:26.045Z,61.30
2023-05-15T03:06:53.100Z,61.19
2023-05-15T03:09:20.467Z,61.04
2023-05-15T03:11:47.524Z,60.76
2023-05-15T03:14:14.835Z,60.30
2023-05-15T03:16:42.318Z,59.58
2023-05-15T03:19:09.591Z,59.40
2023-05-15T03:21:36.537Z,59.52
2023-05-15T03:24:03.466Z,59.51
2023-05-15T03:26:30.308Z,59.61
2023-05-15T03:28:57.987Z,59.76
2023-05-15T03:31:25.137Z,59.93
2023-05-15T03:33:52.002Z,60.15
2023-05-15T03:36:18.884Z,60.36
2023-05-15T03:38:45.746Z,60.31
2023-05-15T03:41:12.676Z,60.29
2023-05-15T03:43:39.670Z,60.36
2023-05-15T03:46:06.620Z,60.33
2023-05-15T03:48:33.502Z,60.16
2023-05-15T03:51:00.546Z,60.18
2023-05-15T03:53:30.909Z,60.09
2023-05-15T03:55:58.101Z,59.90
2023-05-15T03:58:26.331Z,59.57
2023-05-15T04:00:53.394Z,59.15
2023-05-15T04:03:20.674Z,58.68
2023-05-15T04:05:50.366Z,58.60
2023-05-15T04:08:17.247Z,58.07
2023-05-15T04:10:44.055Z,57.78
2023-05-15T04:13:10.941Z,57.80
2023-05-15T04:15:37.863Z,57.80
2023-05-15T04:18:04.936Z,57.63
2023-05-15T04:20:33.828Z,57.49
2023-05-15T04:23:35.216Z,57.67
2023-05-15T04:26:05.445Z,57.04
2023-05-15T04:28:32.684Z,56.20
2023-05-15T04:30:59.633Z,56.40
2023-05-15T04:33:26.683Z,56.23
2023-05-15T04:35:53.625Z,56.03
2023-05-15T04:38:20.408Z,56.07
2023-05-15T04:40:47.524Z,55.69
2023-05-15T04:43:14.574Z,55.15
2023-05-15T04:45:41.480Z,54.37
2023-05-15T04:48:08.625Z,54.21
2023-05-15T04:50:37.045Z,54.07
2023-05-15T04:53:03.916Z,53.81
2023-05-15T04:55:35.616Z,53.56
2023-05-15T04:58:02.588Z,53.64
2023-05-15T05:00:29.572Z,53.82
2023-05-15T05:02:56.663Z,53.67
2023-05-15T05:05:23.896Z,53.56
2023-05-15T05:07:52.220Z,53.45
2023-05-15T05:10:19.366Z,53.78
2023-05-15T05:12:46.367Z,53.61
2023-05-15T05:15:13.259Z,53.30
2023-05-15T05:17:40.468Z,53.10
2023-05-15T05:20:12.940Z,52.98
2023-05-15T05:22:40.942Z,52.37
2023-05-15T05:25:08.306Z,51.97
2023-05-15T05:27:35.256Z,51.89
2023-05-15T05:30:02.364Z,51.72
2023-05-15T05:32:29.420Z,51.62
2023-05-15T05:34:56.410Z,50.95
2023-05-15T05:37:23.633Z,50.61
2023-05-15T05:39:50.606Z,50.21
2023-05-15T05:42:28.947Z,49.88
2023-05-15T05:44:55.960Z,50.26
2023-05-15T05:48:14.997Z,50.39
2023-05-15T05:50:45.148Z,50.74
2023-05-15T05:53:12.203Z,50.97
2023-05-15T05:55:39.138Z,50.50
2023-05-15T05:58:14.558Z,49.90
2023-05-15T06:00:45.217Z,49.72
2023-05-15T06:03:18.374Z,49.81
2023-05-15T06:05:51.313Z,49.82
2023-05-15T06:08:18.587Z,50.02
2023-05-15T06:10:48.562Z,49.69
2023-05-15T06:13:21.244Z,49.22
2023-05-15T06:15:48.195Z,49.39
2023-05-15T06:18:15.165Z,49.37
2023-05-15T06:20:45.378Z,49.05
2023-05-15T06:23:12.693Z,48.51
2023-05-15T06:25:46.847Z,47.93
2023-05-15T06:28:17.467Z,47.36
2023-05-15T06:30:51.119Z,46.14
2023-05-15T06:33:20.274Z,45.33
2023-05-15T06:35:49.511Z,45.05
2023-05-15T06:38:17.129Z,44.97
2023-05-15T06:40:44.128Z,44.68
2023-05-15T06:43:11.227Z,44.26
2023-05-15T06:45:44.623Z,43.93
2023-05-15T06:48:12.333Z,43.85
2023-05-15T06:54:29.836Z,42.87
2023-05-15T06:57:02.714Z,42.48
2023-05-15T06:59:29.690Z,42.44
2023-05-15T07:01:56.589Z,42.16
2023-05-15T07:04:23.553Z,41.83
2023-05-15T07:07:25.686Z,40.52
2023-05-15T07:09:52.635Z,39.50
2023-05-15T07:12:19.659Z,38.53
2023-05-15T07:14:46.558Z,37.91
2023-05-15T07:17:14.381Z,37.76
2023-05-15T07:20:06.912Z,37.40
2023-05-15T07:22:41.531Z,36.94
2023-05-15T07:25:57.365Z,35.65
2023-05-15T07:31:02.842Z,33.99
2023-05-15T07:33:30.243Z,33.74
2023-05-15T07:35:57.050Z,33.44
2023-05-15T07:38:24.338Z,32.88
2023-05-15T07:40:51.663Z,32.43
2023-05-15T07:43:28.145Z,31.90
2023-05-15T07:45:58.198Z,31.60
2023-05-15T07:48:29.087Z,31.33
2023-05-15T07:51:17.823Z,30.69
2023-05-15T07:54:04.909Z,30.03
2023-05-15T07:56:32.643Z,29.54
2023-05-15T07:59:02.296Z,29.35
2023-05-15T08:01:30.767Z,29.71
2023-05-15T08:03:59.655Z,29.78
2023-05-15T08:06:26.523Z,29.76
2023-05-15T08:08:53.731Z,29.97
2023-05-15T08:11:21.721Z,30.13
2023-05-15T08:13:48.696Z,29.67
2023-05-15T08:16:15.901Z,29.68
2023-05-15T08:18:42.816Z,29.97
2023-05-15T08:21:10.088Z,29.75
2023-05-15T08:23:37.145Z,30.20
2023-05-15T08:26:04.042Z,30.22
2023-05-15T08:28:31.163Z,30.17
2023-05-15T08:30:58.121Z,30.35
2023-05-15T08:33:25.081Z,30.00
2023-05-15T08:35:52.684Z,29.62
2023-05-15T08:38:19.613Z,29.42
2023-05-15T08:40:47.284Z,29.15
2023-05-15T08:43:16.820Z,28.79
2023-05-15T08:45:44.034Z,28.61
2023-05-15T08:48:14.049Z,28.10
2023-05-15T08:50:41.219Z,27.89
2023-05-15T08:53:08.344Z,28.16
2023-05-15T08:55:35.192Z,28.09
2023-05-15T08:58:02.028Z,27.74
2023-05-15T09:00:29.068Z,27.33
2023-05-15T09:02:59.714Z,26.81
2023-05-15T09:05:27.545Z,26.35
2023-05-15T09:07:57.348Z,26.29
2023-05-15T09:10:24.245Z,26.11
2023-05-15T09:12:52.020Z,25.71
2023-05-15T09:15:22.228Z,23.65
2023-05-15T09:17:49.706Z,23.84
2023-05-15T09:20:35.613Z,24.77
2023-05-15T09:23:03.783Z,24.44
2023-05-15T09:25:44.843Z,23.71
2023-05-15T09:28:25.681Z,23.52
2023-05-15T09:30:57.566Z,23.71
2023-05-15T09:33:31.885Z,23.56
2023-05-15T09:35:59.174Z,22.92
2023-05-15T09:38:26.005Z,23.29
2023-05-15T09:41:08.140Z,23.46
2023-05-15T09:43:39.026Z,23.38
2023-05-15T09:46:06.597Z,23.49
2023-05-15T09:48:34.723Z,23.37
2023-05-15T09:51:02.357Z,22.87
2023-05-15T09:53:29.282Z,22.19
2023-05-15T09:55:56.409Z,22.24
2023-05-15T09:58:23.593Z,22.82
2023-05-15T10:00:50.688Z,22.63
2023-05-15T10:03:21.165Z,22.55
2023-05-15T10:05:48.337Z,22.51
2023-05-15T10:08:16.368Z,22.06
2023-05-15T10:10:43.884Z,22.10
2023-05-15T10:13:11.176Z,22.13
2023-05-15T10:15:38.112Z,22.12
2023-05-15T10:18:05.244Z,21.17
2023-05-15T10:20:35.685Z,21.26
2023-05-15T10:23:04.536Z,21.89
2023-05-15T10:25:40.797Z,22.42
2023-05-15T10:28:11.730Z,22.13
2023-05-15T10:30:38.896Z,21.50
2023-05-15T10:33:06.870Z,21.86
2023-05-15T10:35:39.272Z,21.84
2023-05-15T10:38:06.653Z,21.89
2023-05-15T10:40:33.978Z,21.91
2023-05-15T10:43:01.803Z,21.98
2023-05-15T10:45:29.460Z,21.89
2023-05-15T10:47:56.432Z,22.11
2023-05-15T10:50:23.467Z,22.20
2023-05-15T10:52:53.623Z,21.99
2023-05-15T10:55:20.557Z,21.87
2023-05-15T10:57:47.748Z,21.71
2023-05-15T11:00:24.236Z,21.75
2023-05-15T11:02:54.030Z,21.24
2023-05-15T11:05:21.109Z,20.74
2023-05-15T11:08:18.464Z,20.97
2023-05-15T11:10:45.267Z,21.72
2023-05-15T11:13:12.214Z,21.51
2023-05-15T11:15:43.571Z,21.33
2023-05-15T11:18:10.768Z,21.93
2023-05-15T11:20:43.108Z,22.07
2023-05-15T11:23:10.066Z,22.10
2023-05-15T11:25:37.415Z,22.36
2023-05-15T11:28:04.649Z,21.96
2023-05-15T11:30:41.463Z,21.64
2023-05-15T11:33:10.530Z,21.51
2023-05-15T11:35:37.709Z,21.54
2023-05-15T11:38:11.573Z,21.88
2023-05-15T11:40:52.725Z,21.83
2023-05-15T11:43:26.627Z,21.70
2023-05-15T11:46:03.173Z,21.65
2023-05-15T11:48:39.538Z,21.34
2023-05-15T11:51:08.517Z,21.71
2023-05-15T11:53:35.522Z,21.55
2023-05-15T11:56:02.493Z,21.27
2023-05-15T11:58:29.315Z,21.07
2023-05-15T12:00:56.497Z,21.04
2023-05-15T12:03:28.202Z,20.90
2023-05-15T12:05:59.616Z,20.66
2023-05-15T12:08:34.075Z,20.86
2023-05-15T12:11:01.266Z,20.49
2023-05-15T12:13:28.341Z,20.35
2023-05-15T12:15:55.812Z,20.59
2023-05-15T12:18:23.398Z,20.23
2023-05-15T12:20:51.977Z,19.66
2023-05-15T12:23:21.086Z,19.96
2023-05-15T12:25:48.067Z,19.97
2023-05-15T12:28:15.066Z,20.09
2023-05-15T12:30:42.336Z,20.44
2023-05-15T12:33:10.318Z,20.83
2023-05-15T12:35:38.259Z,20.80
2023-05-15T12:38:05.892Z,20.78
2023-05-15T12:40:36.871Z,20.75
2023-05-15T12:43:07.421Z,21.15
2023-05-15T12:45:36.372Z,21.09
2023-05-15T12:48:03.729Z,21.19
2023-05-15T12:50:32.583Z,21.49
2023-05-15T12:53:01.469Z,21.72
2023-05-15T12:55:38.099Z,21.68
2023-05-15T12:58:12.233Z,22.59
2023-05-15T13:00:40.673Z,22.27
2023-05-15T13:03:13.527Z,21.84
2023-05-15T13:05:47.279Z,22.38
2023-05-15T13:08:48.138Z,21.91
2023-05-15T13:11:15.141Z,21.11
2023-05-15T13:13:51.544Z,20.75
2023-05-15T13:16:22.478Z,20.76
2023-05-15T13:18:49.474Z,20.93
2023-05-15T13:21:16.608Z,20.72
2023-05-15T13:23:43.804Z,20.84
2023-05-15T13:26:16.418Z,20.67
2023-05-15T13:28:47.039Z,20.38
2023-05-15T13:31:20.116Z,20.48
2023-05-15T13:33:49.770Z,20.25
2023-05-15T13:36:16.569Z,20.11
2023-05-15T13:38:43.377Z,20.27
2023-05-15T13:41:10.375Z,20.15
2023-05-15T13:43:37.221Z,20.50
2023-05-15T13:46:04.682Z,20.69
2023-05-15T13:48:32.078Z,20.78
2023-05-15T13:50:58.862Z,20.36
2023-05-15T13:53:25.767Z,20.17
2023-05-15T13:55:53.115Z,19.86
2023-05-15T13:58:20.028Z,19.35
2023-05-15T14:00:47.318Z,17.81
2023-05-15T14:03:15.214Z,16.93
2023-05-15T14:05:42.445Z,15.59
2023-05-15T14:08:09.476Z,14.61
2023-05-15T14:10:37.410Z,14.24
2023-05-15T14:13:04.472Z,13.68
2023-05-15T14:15:34.424Z,13.28
2023-05-15T14:25:37.812Z,11.90
2023-05-15T14:28:05.109Z,11.38
2023-05-15T14:30:32.010Z,10.73
2023-05-15T14:33:00.314Z,10.80
2023-05-15T14:35:27.236Z,10.77
2023-05-15T14:37:54.156Z,11.20
2023-05-15T14:40:22.364Z,11.16
2023-05-15T14:42:51.953Z,11.63
2023-05-15T14:45:18.901Z,11.48
2023-05-15T14:47:45.984Z,11.41
2023-05-15T14:50:12.854Z,11.49
2023-05-15T14:52:39.936Z,11.39
2023-05-15T14:55:09.167Z,11.31
2023-05-15T14:57:37.730Z,11.40
2023-05-15T15:00:06.753Z,11.58
2023-05-15T15:02:36.579Z,12.07
2023-05-15T15:05:04.672Z,12.32
2023-05-15T15:07:31.736Z,12.38
2023-05-15T15:10:23.777Z,13.07
2023-05-15T15:12:54.049Z,13.40
2023-05-15T15:15:21.047Z,13.43
2023-05-15T15:17:48.029Z,13.91
2023-05-15T15:20:16.101Z,14.19
2023-05-15T15:22:42.963Z,14.50
2023-05-15T15:25:22.330Z,14.88
2023-05-15T15:27:49.334Z,15.15
2023-05-15T15:30:16.458Z,15.48
2023-05-15T15:32:44.657Z,15.89
2023-05-15T15:35:11.814Z,16.03
2023-05-15T15:37:39.154Z,16.46
2023-05-15T15:40:08.201Z,17.08
2023-05-15T15:42:35.089Z,17.23
2023-05-15T15:45:02.014Z,17.80
2023-05-15T15:47:32.401Z,17.97
2023-05-15T15:49:59.809Z,18.37
2023-05-15T15:52:26.956Z,18.56
2023-05-15T15:54:53.992Z,18.89
2023-05-15T15:57:21.362Z,19.21
2023-05-15T15:59:49.426Z,19.50
2023-05-15T16:02:16.874Z,19.91
2023-05-15T16:04:47.743Z,20.43
2023-05-15T16:07:17.641Z,21.34
2023-05-15T16:10:00.230Z,21.69
2023-05-15T16:12:46.752Z,21.68
2023-05-15T16:15:23.279Z,21.71
2023-05-15T16:20:54.350Z,22.84
2023-05-15T16:23:22.816Z,23.40
2023-05-15T16:25:49.653Z,24.01
2023-05-15T16:28:16.604Z,24.43
2023-05-15T16:30:49.427Z,24.55
2023-05-15T16:33:20.063Z,24.72
2023-05-15T16:35:47.388Z,25.15
2023-05-15T16:38:14.725Z,25.76
2023-05-15T16:40:41.670Z,26.61
2023-05-15T16:43:08.544Z,27.28
2023-05-15T16:45:35.471Z,27.93
2023-05-15T16:48:02.489Z,28.18
2023-05-15T16:50:35.003Z,28.56
2023-05-15T16:53:02.566Z,28.81
2023-05-15T16:55:29.591Z,28.86
2023-05-15T16:57:56.525Z,28.74
2023-05-15T17:00:23.538Z,28.92
2023-05-15T17:03:37.399Z,28.92
2023-05-15T17:06:05.257Z,28.98
2023-05-15T17:08:32.865Z,28.88
2023-05-15T17:10:59.714Z,28.95
2023-05-15T17:13:27.735Z,28.98
2023-05-15T17:16:01.270Z,28.64
2023-05-15T17:18:34.898Z,28.67
2023-05-15T17:21:08.471Z,28.83
2023-05-15T17:23:35.717Z,28.85
2023-05-15T17:26:04.282Z,28.82
2023-05-15T17:28:31.482Z,28.87
2023-05-15T17:30:58.399Z,28.63
2023-05-15T17:33:25.763Z,28.53
2023-05-15T17:35:53.982Z,28.38
2023-05-15T17:38:24.479Z,28.60
2023-05-15T17:41:19.776Z,29.09
2023-05-15T17:43:46.664Z,29.39
2023-05-15T17:46:19.563Z,29.49
2023-05-15T17:48:46.589Z,29.72
2023-05-15T17:51:13.509Z,29.99
2023-05-15T17:53:40.381Z,30.35
2023-05-15T17:56:07.382Z,30.57
2023-05-15T17:58:34.258Z,30.59
2023-05-15T18:01:01.419Z,31.01
2023-05-15T18:03:28.510Z,31.22
2023-05-15T18:05:55.607Z,31.43
2023-05-15T18:08:22.630Z,31.42
2023-05-15T18:10:49.753Z,31.42
2023-05-15T18:13:17.181Z,31.60
2023-05-15T18:15:44.269Z,31.87
2023-05-15T18:18:11.393Z,31.98
2023-05-15T18:20:38.430Z,32.37
2023-05-15T18:23:05.653Z,32.99
2023-05-15T18:25:36.926Z,33.29
2023-05-15T18:28:04.715Z,33.82
2023-05-15T18:30:31.580Z,34.10
2023-05-15T18:32:58.458Z,34.13
2023-05-15T18:35:25.482Z,34.24
2023-05-15T18:37:52.431Z,34.26
2023-05-15T18:40:19.503Z,34.06
2023-05-15T18:42:46.709Z,34.47
2023-05-15T18:45:13.741Z,34.72
2023-05-15T18:47:40.625Z,34.88
2023-05-15T18:50:08.276Z,34.86
2023-05-15T18:52:35.099Z,34.82
2023-05-15T18:55:02.078Z,34.95
2023-05-15T18:57:29.023Z,34.92
2023-05-15T18:59:56.010Z,35.26
2023-05-15T19:02:24.574Z,35.05
2023-05-15T19:04:53.163Z,35.21
2023-05-15T19:07:20.053Z,35.29
2023-05-15T19:09:46.928Z,35.40
2023-05-15T19:12:13.852Z,35.71
2023-05-15T19:14:40.669Z,35.88
2023-05-15T19:17:07.546Z,36.13
2023-05-15T19:19:34.382Z,36.25
2023-05-15T19:22:01.317Z,36.13
2023-05-15T19:24:28.150Z,36.05
2023-05-15T19:26:55.247Z,36.26
2023-05-15T19:29:22.249Z,36.45
2023-05-15T19:31:49.783Z,36.30
2023-05-15T19:34:16.770Z,36.56
2023-05-15T19:36:45.952Z,36.92
2023-05-15T19:39:12.984Z,37.44
2023-05-15T19:41:39.826Z,37.74
2023-05-15T19:44:08.265Z,38.01
2023-05-15T19:59:40.276Z,38.10
2023-05-15T20:02:09.782Z,37.61
2023-05-15T20:04:37.081Z,37.46
2023-05-15T20:07:04.020Z,37.43
2023-05-15T20:09:30.771Z,37.43
2023-05-15T20:11:57.698Z,37.73
2023-05-15T20:14:24.370Z,37.99
2023-05-15T20:16:50.979Z,38.09
2023-05-15T20:19:21.306Z,38.34
2023-05-15T20:21:48.179Z,38.70
2023-05-15T20:24:16.648Z,38.85
2023-05-15T20:26:43.848Z,38.92
2023-05-15T20:29:10.778Z,39.02
2023-05-15T20:31:39.546Z,38.98
2023-05-15T20:34:07.579Z,38.89
2023-05-15T20:36:38.236Z,38.54
2023-05-15T20:39:05.361Z,38.06
2023-05-15T20:41:33.135Z,37.77
2023-05-15T20:43:59.961Z,37.58
2023-05-15T20:46:29.693Z,37.04
2023-05-15T20:48:57.017Z,36.75
2023-05-15T20:51:24.012Z,36.61
2023-05-15T20:53:50.700Z,36.40
2023-05-15T20:56:17.380Z,36.14
2023-05-15T20:58:44.154Z,35.66
2023-05-15T21:01:10.893Z,35.35
2023-05-15T21:03:37.902Z,35.12
2023-05-15T21:06:04.984Z,34.79
2023-05-15T21:08:32.963Z,34.46
2023-05-15T21:11:00.398Z,34.31
2023-05-15T21:13:27.561Z,34.40
2023-05-15T21:15:54.185Z,34.34
2023-05-15T21:18:22.436Z,34.30
2023-05-15T21:20:49.093Z,34.28
2023-05-15T21:23:16.078Z,34.39
2023-05-15T21:25:42.928Z,34.49
2023-05-15T21:28:09.701Z,34.45
2023-05-15T21:30:36.535Z,34.63
2023-05-15T21:33:03.355Z,34.93
2023-05-15T21:35:31.185Z,35.15
2023-05-15T21:37:58.806Z,35.19
2023-05-15T21:40:25.871Z,35.23
2023-05-15T21:42:52.789Z,35.39
2023-05-15T21:45:20.038Z,35.68
2023-05-15T21:47:46.672Z,36.03
2023-05-15T21:50:13.794Z,36.27
2023-05-15T21:52:40.512Z,36.38
2023-05-15T21:55:07.625Z,36.71
2023-05-15T21:57:34.521Z,36.96
2023-05-15T22:00:01.698Z,37.15
2023-05-15T22:02:28.831Z,37.25
2023-05-15T22:04:55.628Z,37.54
2023-05-15T22:07:22.293Z,38.03
2023-05-15T22:09:49.077Z,38.06
2023-05-15T22:12:15.956Z,38.24
2023-05-15T22:14:54.645Z,38.34
2023-05-15T22:17:26.500Z,38.37
2023-05-15T22:19:53.401Z,38.70
2023-05-15T22:22:20.225Z,38.80
2023-05-15T22:24:47.350Z,38.91
2023-05-15T22:27:15.942Z,38.88
2023-05-15T22:29:42.718Z,38.75
2023-05-15T22:32:09.524Z,38.65
2023-05-15T22:34:36.348Z,38.83
2023-05-15T22:37:03.124Z,39.17
2023-05-15T22:39:30.274Z,39.39
2023-05-15T22:41:57.191Z,39.67
2023-05-15T22:44:23.894Z,39.85
2023-05-15T22:46:50.772Z,39.72
2023-05-15T22:49:24.621Z,40.11
2023-05-15T22:51:52.779Z,40.70
2023-05-15T22:54:23.151Z,41.28
2023-05-15T22:56:51.231Z,41.40
2023-05-15T22:59:18.041Z,41.90
2023-05-15T23:01:45.785Z,42.12
2023-05-15T23:04:12.692Z,42.24
2023-05-15T23:06:40.455Z,42.36
2023-05-15T23:09:10.045Z,42.46
2023-05-15T23:11:37.339Z,42.83
2023-05-15T23:14:04.387Z,42.82
2023-05-15T23:16:31.233Z,42.44
2023-05-15T23:18:58.302Z,42.44
2023-05-15T23:21:25.176Z,42.62
2023-05-15T23:23:52.009Z,42.60
2023-05-15T23:26:18.811Z,42.83
2023-05-15T23:28:45.552Z,42.89
2023-05-15T23:31:13.329Z,42.87
2023-05-15T23:33:40.518Z,43.08
2023-05-15T23:36:07.436Z,43.17
2023-05-15T23:38:34.360Z,43.12
2023-05-15T23:41:01.402Z,43.47
2023-05-15T23:43:28.361Z,43.52
2023-05-15T23:45:55.336Z,43.60
2023-05-15T23:48:22.047Z,43.80
2023-05-15T23:50:48.987Z,43.96
2023-05-15T23:53:15.725Z,43.98
2023-05-15T23:55:42.454Z,44.07
2023-05-15T23:58:09.206Z,44.10
